Gladan — SBCG — position and weather

sailwx.info

Track history (hours):
 
Tides and Currents Weather Stations Pressure Air Temp Water Temp Dewpoint Dewpoint Depression Visibility Wind Speed Wind Dir Waves Ship Positions

Gladan

Last reported at 2017-Nov-23 21:34 UTC. Time now 2017-Nov-24 02:25 UTC.
Position N 28°28' W 016°15'.

Length 36 m; draft 4.2 m.

Type: Sailing vessel. MMSI: 265404000.

Date/timePositionNaut miles runAvg speedWind from/ knotsBaromVisibWave heightAir tempDewpointWater temp
2017-Nov-23 21:34N 28°28' W 016°15'0 0.0
2017-Nov-23 16:46N 28°28' W 016°15'0 0.0
2017-Nov-23 16:28N 28°28' W 016°15'0 0.0
2017-Nov-23 14:43N 28°28' W 016°15'0 0.0
2017-Nov-23 14:19N 28°28' W 016°15'0 0.0
2017-Nov-23 13:49N 28°28' W 016°15'0 0.0
2017-Nov-23 13:28N 28°28' W 016°15'0 0.0
2017-Nov-23 12:49N 28°28' W 016°15'0 0.0
2017-Nov-23 12:19N 28°28' W 016°15'0 0.0
2017-Nov-23 11:49N 28°28' W 016°15'0 0.0
2017-Nov-23 10:22N 28°28' W 016°15'0 0.0
2017-Nov-23 09:52N 28°28' W 016°15'0 0.0
2017-Nov-23 09:22N 28°28' W 016°15'0 0.0
2017-Nov-23 08:40N 28°28' W 016°15'0 0.0
2017-Nov-23 05:58N 28°28' W 016°15'0 0.0
2017-Nov-23 04:28N 28°28' W 016°15'0 0.0
2017-Nov-23 03:58N 28°28' W 016°15'0 0.0
2017-Nov-23 03:13N 28°28' W 016°15'0 0.0
2017-Nov-23 02:58N 28°28' W 016°15'  
2017-Nov-20 00:30N 28°45' W 014°29'3 5.1
2017-Nov-20 00:00N 28°47' W 014°27'3 5.4
2017-Nov-19 23:27N 28°50' W 014°25'3 6.0
2017-Nov-19 23:00N 28°52' W 014°24'4 6.1
2017-Nov-19 22:26N 28°55' W 014°22'41 3.6
2017-Nov-19 11:02N 28°55' W 013°34'3 0.1
2017-Nov-17 09:44N 28°57' W 013°33'1 1.9
2017-Nov-17 09:22N 28°57' W 013°32'2 3.7
2017-Nov-17 08:52N 28°58' W 013°31'0 0.0
2017-Nov-15 16:56N 28°58' W 013°31'2 3.7
2017-Nov-15 16:24N 28°57' W 013°33'2 5.4
2017-Nov-15 15:59N 28°58' W 013°31'2 4.9
2017-Nov-15 15:29N 28°59' W 013°28'3 6.8
2017-Nov-15 15:00N 29°02' W 013°26'3 6.5
2017-Nov-15 14:30N 29°05' W 013°25'3 6.1
2017-Nov-15 14:00N 29°08' W 013°23'2 3.1
2017-Nov-15 13:24N 29°09' W 013°23'6 3.5
2017-Nov-15 11:39N 29°15' W 013°25'  
Track history (hours):
 
Tides and Currents Weather Stations Pressure Air Temp Water Temp Dewpoint Dewpoint Depression Visibility Wind Speed Wind Dir Waves Ship Positions

Gladan

Last reported at 2017-Nov-23 21:34 UTC. Time now 2017-Nov-24 02:25 UTC.
Position N 28°28' W 016°15'.

Length 36 m; draft 4.2 m.

Type: Sailing vessel. MMSI: 265404000.

Date/timePositionNaut miles runAvg speedWind from/ knotsBaromVisibWave heightAir tempDewpointWater temp
2017-Nov-23 21:34N 28°28' W 016°15'0 0.0
2017-Nov-23 16:46N 28°28' W 016°15'0 0.0
2017-Nov-23 16:28N 28°28' W 016°15'0 0.0
2017-Nov-23 14:43N 28°28' W 016°15'0 0.0
2017-Nov-23 14:19N 28°28' W 016°15'0 0.0
2017-Nov-23 13:49N 28°28' W 016°15'0 0.0
2017-Nov-23 13:28N 28°28' W 016°15'0 0.0
2017-Nov-23 12:49N 28°28' W 016°15'0 0.0
2017-Nov-23 12:19N 28°28' W 016°15'0 0.0
2017-Nov-23 11:49N 28°28' W 016°15'0 0.0
2017-Nov-23 10:22N 28°28' W 016°15'0 0.0
2017-Nov-23 09:52N 28°28' W 016°15'0 0.0
2017-Nov-23 09:22N 28°28' W 016°15'0 0.0
2017-Nov-23 08:40N 28°28' W 016°15'0 0.0
2017-Nov-23 05:58N 28°28' W 016°15'0 0.0
2017-Nov-23 04:28N 28°28' W 016°15'0 0.0
2017-Nov-23 03:58N 28°28' W 016°15'0 0.0
2017-Nov-23 03:13N 28°28' W 016°15'0 0.0
2017-Nov-23 02:58N 28°28' W 016°15'  
2017-Nov-20 00:30N 28°45' W 014°29'3 5.1
2017-Nov-20 00:00N 28°47' W 014°27'3 5.4
2017-Nov-19 23:27N 28°50' W 014°25'3 6.0
2017-Nov-19 23:00N 28°52' W 014°24'4 6.1
2017-Nov-19 22:26N 28°55' W 014°22'41 3.6
2017-Nov-19 11:02N 28°55' W 013°34'3 0.1
2017-Nov-17 09:44N 28°57' W 013°33'1 1.9
2017-Nov-17 09:22N 28°57' W 013°32'2 3.7
2017-Nov-17 08:52N 28°58' W 013°31'0 0.0
2017-Nov-15 16:56N 28°58' W 013°31'2 3.7
2017-Nov-15 16:24N 28°57' W 013°33'2 5.4
2017-Nov-15 15:59N 28°58' W 013°31'2 4.9
2017-Nov-15 15:29N 28°59' W 013°28'3 6.8
2017-Nov-15 15:00N 29°02' W 013°26'3 6.5
2017-Nov-15 14:30N 29°05' W 013°25'3 6.1
2017-Nov-15 14:00N 29°08' W 013°23'2 3.1
2017-Nov-15 13:24N 29°09' W 013°23'6 3.5
2017-Nov-15 11:39N 29°15' W 013°25'  

Dump ship's entire track history